Time;durP1;ratioP1;P1;durP2;ratioP2;P2;SDS_P1;SDS_P2;PMS_P1;PMS_P2;Temp;Humidity;BMP_temperature;BMP_pressure;BME280_temperature;BME280_humidity;BME280_pressure;Samples;Min_cycle;Max_cycle;Signal;HPM_P1;HPM_P2
2021/10/09 00:02:00;;;;;;;;;;;;;;;;;;5114450;28;19923;-72
2021/10/09 00:04:26;;;;;;;;;;;;;;;;;;5114672;28;19923;-73
2021/10/09 00:06:53;;;;;;;;;;;;;;;;;;5114364;28;19924;-73
2021/10/09 00:09:19;;;;;;;;;;;;;;;;;;5114119;28;19923;-73
2021/10/09 00:11:45;;;;;;;;;;;;;;;;;;5114470;28;19946;-73
2021/10/09 00:14:12;;;;;;;;;;;;;;;;;;5113746;28;19928;-74
2021/10/09 00:16:38;;;;;;;;;;;;;;;;;;5114368;28;19928;-74
2021/10/09 00:19:04;;;;;;;;;;;;;;;;;;5114123;28;19945;-74
2021/10/09 00:21:30;;;;;;;;;;;;;;;;;;5114019;28;19931;-73
2021/10/09 00:23:58;;;;;;;;;;;;;;;;;;5113901;28;20072;-74
2021/10/09 00:26:25;;;;;;;;;;;;;;;;;;5114194;28;19924;-74
2021/10/09 00:28:51;;;;;;;;;;;;;;;;;;5114092;28;19923;-74
2021/10/09 00:31:17;;;;;;;;;;;;;;;;;;5113611;28;19931;-74
2021/10/09 00:33:44;;;;;;;;;;;;;;;;;;5113978;28;19924;-71
2021/10/09 00:36:10;;;;;;;;;;;;;;;;;;5113587;28;19931;-74
2021/10/09 00:38:36;;;;;;;;;;;;;;;;;;5113580;28;19924;-73
2021/10/09 00:41:03;;;;;;;;;;;;;;;;;;5113692;28;19934;-73
2021/10/09 00:43:29;;;;;;;;;;;;;;;;;;5113902;28;20320;-74
2021/10/09 00:45:56;;;;;;;;;;;;;;;;;;5113254;28;19930;-73
2021/10/09 00:48:22;;;;;;;;;;;;;;;;;;5113493;28;19980;-73
2021/10/09 00:50:48;;;;;;;;;;;;;;;;;;5113846;28;19923;-74
2021/10/09 00:53:15;;;;;;;;;;;;;;;;;;5113112;28;19927;-73
2021/10/09 00:55:41;;;;;;;;;;;;;;;;;;5113251;28;19924;-73
2021/10/09 00:58:07;;;;;;;;;;;;;;;;;;5113281;28;20388;-74
2021/10/09 01:00:34;;;;;;;;;;;;;;;;;;5113257;28;19965;-74
2021/10/09 01:03:03;;;;;;;;;;;;;;;;;;5113225;28;19931;-73
2021/10/09 01:05:29;;;;;;;;;;;;;;;;;;5113484;28;19923;-74
2021/10/09 01:07:55;;;;;;;;;;;;;;;;;;5112835;28;20394;-74
2021/10/09 01:10:22;;;;;;;;;;;;;;;;;;5113050;28;19931;-74
2021/10/09 01:12:48;;;;;;;;;;;;;;;;;;5112883;28;19923;-74
2021/10/09 01:15:14;;;;;;;;;;;;;;;;;;5113127;28;19924;-73
2021/10/09 01:17:41;;;;;;;;;;;;;;;;;;5113245;28;20022;-73
2021/10/09 01:20:07;;;;;;;;;;;;;;;;;;5112724;28;19931;-73
2021/10/09 01:22:33;;;;;;;;;;;;;;;;;;5113261;28;19963;-74
2021/10/09 01:24:59;;;;;;;;;;;;;;;;;;5112512;28;20005;-74
2021/10/09 01:27:26;;;;;;;;;;;;;;;;;;5113217;28;19924;-74
2021/10/09 01:29:52;;;;;;;;;;;;;;;;;;5113244;28;19924;-74
2021/10/09 01:32:18;;;;;;;;;;;;;;;;;;5112558;28;19924;-74
2021/10/09 01:34:45;;;;;;;;;;;;;;;;;;5113098;28;19924;-74
2021/10/09 01:37:11;;;;;;;;;;;;;;;;;;5112410;28;19924;-74
2021/10/09 01:39:37;;;;;;;;;;;;;;;;;;5113157;28;19931;-74
2021/10/09 01:42:03;;;;;;;;;;;;;;;;;;5112864;28;19951;-74
2021/10/09 01:44:30;;;;;;;;;;;;;;;;;;5112822;28;19924;-74
2021/10/09 01:46:56;;;;;;;;;;;;;;;;;;5112835;28;19931;-74
2021/10/09 01:49:22;;;;;;;;;;;;;;;;;;5115962;28;19946;-74
2021/10/09 01:51:49;;;;;;;;;;;;;;;;;;5116885;28;19939;-74
2021/10/09 01:54:15;;;;;;;;;;;;;;;;;;5116777;28;19923;-74
2021/10/09 01:56:41;;;;;;;;;;;;;;;;;;5116745;28;20382;-72
2021/10/09 01:59:08;;;;;;;;;;;;;;;;;;5116467;28;19923;-72
2021/10/09 02:01:34;;;;;;;;;;;;;;;;;;5116981;28;19928;-72
2021/10/09 02:04:02;;;;;;;;;;;;;;;;;;5116447;28;19924;-72
2021/10/09 02:06:28;;;;;;;;;;;;;;;;;;5116995;28;20018;-72
2021/10/09 02:08:55;;;;;;;;;;;;;;;;;;5116883;28;19947;-73
2021/10/09 02:11:23;;;;;;;;;;;;;;;;;;5116511;28;19924;-72
2021/10/09 02:13:53;;;;;;;;;;;;;;;;;;5116340;28;19924;-72
2021/10/09 02:16:46;;;;;;;;;;;;;;;;;;5116259;28;20431;-73
2021/10/09 02:24:52;;;;;;;;;;;;;;;;;;5116475;28;19919;-72
2021/10/09 02:27:19;;;;;;;;;;;;;;;;;;5116101;28;20416;-73
2021/10/09 02:29:45;;;;;;;;;;;;;;;;;;5116196;28;19930;-72
2021/10/09 02:32:11;;;;;;;;;;;;;;;;;;5116248;28;19930;-72
2021/10/09 02:34:38;;;;;;;;;;;;;;;;;;5115971;28;20404;-72
2021/10/09 02:37:04;;;;;;;;;;;;;;;;;;5115745;28;19928;-72
2021/10/09 02:39:30;;;;;;;;;;;;;;;;;;5116367;28;19924;-72
2021/10/09 02:41:56;;;;;;;;;;;;;;;;;;5115782;28;20382;-72
2021/10/09 02:44:23;;;;;;;;;;;;;;;;;;5115922;28;19938;-72
2021/10/09 02:46:49;;;;;;;;;;;;;;;;;;5116170;28;19923;-72
2021/10/09 02:49:15;;;;;;;;;;;;;;;;;;5115576;28;20377;-72
2021/10/09 02:51:42;;;;;;;;;;;;;;;;;;5116185;28;19932;-72
2021/10/09 02:54:08;;;;;;;;;;;;;;;;;;5115370;28;20293;-72
2021/10/09 02:56:34;;;;;;;;;;;;;;;;;;5115564;28;19928;-72
2021/10/09 02:59:00;;;;;;;;;;;;;;;;;;5115698;28;19924;-72
2021/10/09 03:01:27;;;;;;;;;;;;;;;;;;5115602;28;19930;-72
2021/10/09 03:03:53;;;;;;;;;;;;;;;;;;5115813;28;19931;-72
2021/10/09 03:06:19;;;;;;;;;;;;;;;;;;5115597;28;19946;-73
2021/10/09 03:08:46;;;;;;;;;;;;;;;;;;5115623;28;19923;-73
2021/10/09 03:11:12;;;;;;;;;;;;;;;;;;5115537;28;19924;-73
2021/10/09 03:13:38;;;;;;;;;;;;;;;;;;5115344;28;20289;-73
2021/10/09 03:16:05;;;;;;;;;;;;;;;;;;5115031;28;19935;-73
2021/10/09 03:18:31;;;;;;;;;;;;;;;;;;5115459;28;19930;-73
2021/10/09 03:20:57;;;;;;;;;;;;;;;;;;5115010;28;20382;-73
2021/10/09 03:23:23;;;;;;;;;;;;;;;;;;5115204;28;19924;-73
2021/10/09 03:25:50;;;;;;;;;;;;;;;;;;5115429;28;20037;-73
2021/10/09 03:28:16;;;;;;;;;;;;;;;;;;5115092;28;19935;-73
2021/10/09 03:30:42;;;;;;;;;;;;;;;;;;5115313;28;19924;-73
2021/10/09 03:33:09;;;;;;;;;;;;;;;;;;5115405;28;19924;-73
2021/10/09 03:35:35;;;;;;;;;;;;;;;;;;5129264;28;19919;-73
2021/10/09 03:38:02;;;;;;;;;;;;;;;;;;5140336;28;19934;-73
2021/10/09 03:40:28;;;;;;;;;;;;;;;;;;5136942;28;19924;-73
2021/10/09 03:43:00;;;;;;;;;;;;;;;;;;5114829;28;19928;-73
2021/10/09 03:45:30;;;;;;;;;;;;;;;;;;5115247;28;20030;-73
2021/10/09 03:48:05;;;;;;;;;;;;;;;;;;5114392;28;19963;-73
2021/10/09 03:53:15;;;;;;;;;;;;;;;;;;5114475;28;20270;-73
2021/10/09 03:55:41;;;;;;;;;;;;;;;;;;5114253;28;20376;-72
2021/10/09 03:58:08;;;;;;;;;;;;;;;;;;5114313;28;19930;-72
2021/10/09 04:00:34;;;;;;;;;;;;;;;;;;5114772;28;19931;-73
2021/10/09 04:03:00;;;;;;;;;;;;;;;;;;5114028;28;20404;-73
2021/10/09 04:05:27;;;;;;;;;;;;;;;;;;5114669;28;19924;-73
2021/10/09 04:07:53;;;;;;;;;;;;;;;;;;5114637;28;19923;-73
2021/10/09 04:10:21;;;;;;;;;;;;;;;;;;5113900;28;19924;-73
2021/10/09 04:12:47;;;;;;;;;;;;;;;;;;5113738;28;20381;-73
2021/10/09 04:15:13;;;;;;;;;;;;;;;;;;5113870;28;19924;-73
2021/10/09 04:17:40;;;;;;;;;;;;;;;;;;5114325;28;19923;-73
2021/10/09 04:20:06;;;;;;;;;;;;;;;;;;5113865;28;19935;-73
2021/10/09 04:22:32;;;;;;;;;;;;;;;;;;5114026;28;19924;-73
2021/10/09 04:24:58;;;;;;;;;;;;;;;;;;5114051;28;19924;-73
2021/10/09 04:27:25;;;;;;;;;;;;;;;;;;5113760;28;19924;-73
2021/10/09 04:29:51;;;;;;;;;;;;;;;;;;5114031;28;19931;-73
2021/10/09 04:32:17;;;;;;;;;;;;;;;;;;5113864;28;20293;-73
2021/10/09 04:34:44;;;;;;;;;;;;;;;;;;5113667;28;19931;-73
2021/10/09 04:37:10;;;;;;;;;;;;;;;;;;5113683;28;19930;-73
2021/10/09 04:39:36;;;;;;;;;;;;;;;;;;5113684;28;20412;-72
2021/10/09 04:42:03;;;;;;;;;;;;;;;;;;5113385;28;19934;-73
2021/10/09 04:44:29;;;;;;;;;;;;;;;;;;5113843;28;19924;-73
2021/10/09 04:46:55;;;;;;;;;;;;;;;;;;5113551;28;19931;-73
2021/10/09 04:49:22;;;;;;;;;;;;;;;;;;5113817;28;19924;-73
2021/10/09 04:51:48;;;;;;;;;;;;;;;;;;5113429;28;20382;-73
2021/10/09 04:54:14;;;;;;;;;;;;;;;;;;5113110;28;20338;-73
2021/10/09 04:56:41;;;;;;;;;;;;;;;;;;5113172;28;19923;-73
2021/10/09 04:59:07;;;;;;;;;;;;;;;;;;5113086;28;19981;-73
2021/10/09 05:01:33;;;;;;;;;;;;;;;;;;5113629;28;19931;-73
2021/10/09 05:04:00;;;;;;;;;;;;;;;;;;5113021;28;20392;-73
2021/10/09 05:06:26;;;;;;;;;;;;;;;;;;5113506;28;19924;-73
2021/10/09 05:08:52;;;;;;;;;;;;;;;;;;5113183;28;20289;-73
2021/10/09 05:11:18;;;;;;;;;;;;;;;;;;5112927;28;19924;-73
2021/10/09 05:13:45;;;;;;;;;;;;;;;;;;5113384;28;19924;-73
2021/10/09 05:16:11;;;;;;;;;;;;;;;;;;5112832;28;19931;-73
2021/10/09 05:18:37;;;;;;;;;;;;;;;;;;5113234;28;19935;-73
2021/10/09 05:21:04;;;;;;;;;;;;;;;;;;5112814;28;19924;-73
2021/10/09 05:23:32;;;;;;;;;;;;;;;;;;5112473;28;19930;-72
2021/10/09 05:25:58;;;;;;;;;;;;;;;;;;5112898;28;19931;-73
2021/10/09 05:28:28;;;;;;;;;;;;;;;;;;5112936;28;19928;-72
2021/10/09 05:30:56;;;;;;;;;;;;;;;;;;5112844;28;19931;-72
2021/10/09 05:33:35;;;;;;;;;;;;;;;;;;5112788;28;19931;-72
2021/10/09 05:36:02;;;;;;;;;;;;;;;;;;5112943;28;19924;-73
2021/10/09 05:38:28;;;;;;;;;;;;;;;;;;5112855;28;20275;-73
2021/10/09 05:40:55;;;;;;;;;;;;;;;;;;5112625;28;19924;-73
2021/10/09 05:43:22;;;;;;;;;;;;;;;;;;5112726;28;19931;-73
2021/10/09 05:45:48;;;;;;;;;;;;;;;;;;5113059;28;19924;-73
2021/10/09 05:48:14;;;;;;;;;;;;;;;;;;5112593;28;20401;-71
2021/10/09 05:50:48;;;;;;;;;;;;;;;;;;5112644;28;20335;-73
2021/10/09 05:53:28;;;;;;;;;;;;;;;;;;5112361;28;19931;-73
2021/10/09 05:55:56;;;;;;;;;;;;;;;;;;5112410;28;19930;-73
2021/10/09 05:58:26;;;;;;;;;;;;;;;;;;5112964;28;19946;-73
2021/10/09 06:25:59;;;;;;;;;;;;;;;;;;5112617;28;19965;-73
2021/10/09 06:45:15;;;;;;;;;;;;;;;;;;5113882;28;19970;-73
2021/10/09 06:47:44;;;;;;;;;;;;;;;;;;5115858;28;19978;-72
2021/10/09 07:01:11;;;;;;;;;;;;;;;;;;5115542;28;19961;-73
2021/10/09 07:03:37;;;;;;;;;;;;;;;;;;5115544;28;20394;-73
2021/10/09 07:06:04;;;;;;;;;;;;;;;;;;5115599;28;19933;-73
2021/10/09 07:08:30;;;;;;;;;;;;;;;;;;5115385;28;19927;-73
2021/10/09 07:10:59;;;;;;;;;;;;;;;;;;5115444;28;19923;-73
2021/10/09 07:13:25;;;;;;;;;;;;;;;;;;5115680;28;19924;-73
2021/10/09 07:15:52;;;;;;;;;;;;;;;;;;5115331;28;19923;-73
2021/10/09 07:18:18;;;;;;;;;;;;;;;;;;5115418;28;19928;-72
2021/10/09 07:20:44;;;;;;;;;;;;;;;;;;5115513;28;19924;-72
2021/10/09 07:23:11;;;;;;;;;;;;;;;;;;5114895;28;20495;-72
2021/10/09 07:25:38;;;;;;;;;;;;;;;;;;5115315;28;19953;-72
2021/10/09 07:28:04;;;;;;;;;;;;;;;;;;5114881;28;20294;-72
2021/10/09 07:30:30;;;;;;;;;;;;;;;;;;5115412;28;19923;-72
2021/10/09 07:32:57;;;;;;;;;;;;;;;;;;5115001;28;19931;-72
2021/10/09 07:35:23;;;;;;;;;;;;;;;;;;5114809;28;20301;-72
2021/10/09 07:37:49;;;;;;;;;;;;;;;;;;5114966;28;19923;-72
2021/10/09 07:40:16;;;;;;;;;;;;;;;;;;5115018;28;19934;-72
2021/10/09 07:42:42;;;;;;;;;;;;;;;;;;5115424;28;19971;-72
2021/10/09 07:45:09;;;;;;;;;;;;;;;;;;5114853;28;20400;-73
2021/10/09 07:47:35;;;;;;;;;;;;;;;;;;5116208;28;19924;-72
2021/10/09 07:50:01;;;;;;;;;;;;;;;;;;5131069;28;19934;-73
2021/10/09 07:52:27;;;;;;;;;;;;;;;;;;5140241;28;20175;-72
2021/10/09 07:54:54;;;;;;;;;;;;;;;;;;5127853;28;19924;-72
2021/10/09 07:57:20;;;;;;;;;;;;;;;;;;5115109;28;20280;-72
2021/10/09 07:59:46;;;;;;;;;;;;;;;;;;5114640;28;19924;-72
2021/10/09 08:02:13;;;;;;;;;;;;;;;;;;5114478;28;19923;-72
2021/10/09 08:04:39;;;;;;;;;;;;;;;;;;5114459;28;19970;-73
2021/10/09 08:07:05;;;;;;;;;;;;;;;;;;5114354;28;19924;-72
2021/10/09 08:09:34;;;;;;;;;;;;;;;;;;5114267;28;20316;-72
2021/10/09 08:12:00;;;;;;;;;;;;;;;;;;5114187;28;19924;-72
2021/10/09 08:14:26;;;;;;;;;;;;;;;;;;5114151;28;19931;-72
2021/10/09 08:16:53;;;;;;;;;;;;;;;;;;5114365;28;19924;-71
2021/10/09 08:19:19;;;;;;;;;;;;;;;;;;5113745;28;20378;-71
2021/10/09 08:21:46;;;;;;;;;;;;;;;;;;5114071;28;19930;-71
2021/10/09 08:24:19;;;;;;;;;;;;;;;;;;5113835;28;20309;-71
2021/10/09 08:40:24;;;;;;;;;;;;;;;;;;5113812;28;19946;-72
2021/10/09 08:42:50;;;;;;;;;;;;;;;;;;5113649;28;20370;-72
2021/10/09 08:45:16;;;;;;;;;;;;;;;;;;5113377;28;19927;-72
2021/10/09 08:47:44;;;;;;;;;;;;;;;;;;5113925;28;19930;-71
2021/10/09 08:50:11;;;;;;;;;;;;;;;;;;5113531;28;19923;-71
2021/10/09 08:52:37;;;;;;;;;;;;;;;;;;5113414;28;19924;-71
2021/10/09 08:55:03;;;;;;;;;;;;;;;;;;5113046;28;19927;-72
2021/10/09 08:57:30;;;;;;;;;;;;;;;;;;5113563;28;19924;-72
2021/10/09 09:00:01;;;;;;;;;;;;;;;;;;5113079;28;19923;-71
2021/10/09 09:02:30;;;;;;;;;;;;;;;;;;5113381;28;19924;-71
2021/10/09 09:05:10;;;;;;;;;;;;;;;;;;5113311;28;20019;-71
2021/10/09 09:07:56;;;;;;;;;;;;;;;;;;5113697;28;19947;-71
2021/10/09 09:40:35;;;;;;;;;;;;;;;;;;5112978;28;20278;-71
2021/10/09 09:43:02;;;;;;;;;;;;;;;;;;5112503;28;19924;-70
2021/10/09 09:45:28;;;;;;;;;;;;;;;;;;5112708;28;20014;-71
2021/10/09 09:47:55;;;;;;;;;;;;;;;;;;5113080;28;20030;-70
2021/10/09 09:50:21;;;;;;;;;;;;;;;;;;5112694;28;19924;-71
2021/10/09 09:52:48;;;;;;;;;;;;;;;;;;5112983;28;20032;-71
2021/10/09 09:55:14;;;;;;;;;;;;;;;;;;5112228;28;20396;-71
2021/10/09 09:57:40;;;;;;;;;;;;;;;;;;5112722;28;19924;-70
2021/10/09 10:00:07;;;;;;;;;;;;;;;;;;5112679;28;19924;-70
2021/10/09 10:02:33;;;;;;;;;;;;;;;;;;5113124;28;19946;-71
2021/10/09 10:04:59;;;;;;;;;;;;;;;;;;5112530;28;19928;-73
2021/10/09 10:07:26;;;;;;;;;;;;;;;;;;5112936;28;19923;-71
2021/10/09 10:09:52;;;;;;;;;;;;;;;;;;5119822;27;19928;-72
2021/10/09 10:12:18;;;;;;;;;;;;;;;;;;5134018;27;19923;-73
2021/10/09 10:14:45;;;;;;;;;;;;;;;;;;5117011;28;20263;-72
2021/10/09 10:17:11;;;;;;;;;;;;;;;;;;5120612;27;20123;-74
2021/10/09 10:19:37;;;;;;;;;;;;;;;;;;5137419;27;19924;-74
2021/10/09 10:22:03;;;;;;;;;;;;;;;;;;5136934;27;20378;-73
2021/10/09 10:24:30;;;;;;;;;;;;;;;;;;5136928;27;19923;-74
2021/10/09 10:26:56;;;;;;;;;;;;;;;;;;5121979;27;19924;-73
2021/10/09 10:29:25;;;;;;;;;;;;;;;;;;5116258;28;19931;-73
2021/10/09 10:31:52;;;;;;;;;;;;;;;;;;5116474;28;19924;-71
2021/10/09 10:34:18;;;;;;;;;;;;;;;;;;5115919;28;19930;-71
2021/10/09 10:36:45;;;;;;;;;;;;;;;;;;5116082;28;19924;-71
2021/10/09 10:39:11;;;;;;;;;;;;;;;;;;5116186;28;19924;-74
2021/10/09 10:41:37;;;;;;;;;;;;;;;;;;5115981;28;20293;-73
2021/10/09 10:44:05;;;;;;;;;;;;;;;;;;5130920;27;19927;-74
2021/10/09 10:46:33;;;;;;;;;;;;;;;;;;5136454;27;19923;-71
2021/10/09 10:49:01;;;;;;;;;;;;;;;;;;5136744;27;19927;-71
2021/10/09 10:51:27;;;;;;;;;;;;;;;;;;5136348;27;20026;-72
2021/10/09 10:53:58;;;;;;;;;;;;;;;;;;5137547;27;19930;-72
2021/10/09 10:56:25;;;;;;;;;;;;;;;;;;5136894;27;19927;-74
2021/10/09 10:58:51;;;;;;;;;;;;;;;;;;5136552;27;19923;-74
2021/10/09 11:01:18;;;;;;;;;;;;;;;;;;5136377;27;19930;-73
2021/10/09 11:03:45;;;;;;;;;;;;;;;;;;5137142;27;19927;-74
2021/10/09 11:06:11;;;;;;;;;;;;;;;;;;5136191;27;19923;-74
2021/10/09 11:08:37;;;;;;;;;;;;;;;;;;5135913;27;19924;-74
2021/10/09 11:11:03;;;;;;;;;;;;;;;;;;5136056;27;19934;-74
2021/10/09 11:13:30;;;;;;;;;;;;;;;;;;5135991;27;20428;-74
2021/10/09 11:15:57;;;;;;;;;;;;;;;;;;5135674;27;19929;-74
2021/10/09 11:18:23;;;;;;;;;;;;;;;;;;5118953;27;20305;-74
2021/10/09 11:20:51;;;;;;;;;;;;;;;;;;5113985;28;19934;-74
2021/10/09 11:23:17;;;;;;;;;;;;;;;;;;5114887;28;19924;-74
2021/10/09 11:25:44;;;;;;;;;;;;;;;;;;5115442;28;19930;-73
2021/10/09 11:28:11;;;;;;;;;;;;;;;;;;5115164;28;19923;-73
2021/10/09 11:30:37;;;;;;;;;;;;;;;;;;5115469;28;19924;-73
2021/10/09 11:33:04;;;;;;;;;;;;;;;;;;5114755;28;19932;-73
2021/10/09 11:35:30;;;;;;;;;;;;;;;;;;5114905;28;20019;-73
2021/10/09 11:37:57;;;;;;;;;;;;;;;;;;5114982;28;19930;-74
2021/10/09 11:40:23;;;;;;;;;;;;;;;;;;5114825;28;20415;-73
2021/10/09 11:42:53;;;;;;;;;;;;;;;;;;5114777;28;20013;-73
2021/10/09 11:45:25;;;;;;;;;;;;;;;;;;5114736;28;20169;-73
2021/10/09 11:53:40;;;;;;;;;;;;;;;;;;5114888;28;19919;-73
2021/10/09 11:56:07;;;;;;;;;;;;;;;;;;5114658;28;19924;-73
2021/10/09 11:58:33;;;;;;;;;;;;;;;;;;5117497;28;19924;-73
2021/10/09 12:01:00;;;;;;;;;;;;;;;;;;5139278;28;19923;-73
2021/10/09 12:03:26;;;;;;;;;;;;;;;;;;5139045;28;19918;-73
2021/10/09 12:05:53;;;;;;;;;;;;;;;;;;5121010;28;19924;-73
2021/10/09 12:08:24;;;;;;;;;;;;;;;;;;5114531;28;19969;-72
2021/10/09 12:10:50;;;;;;;;;;;;;;;;;;5114639;28;19977;-72
2021/10/09 12:13:17;;;;;;;;;;;;;;;;;;5114335;28;19923;-72
2021/10/09 12:15:43;;;;;;;;;;;;;;;;;;5114221;28;20527;-71
2021/10/09 12:18:10;;;;;;;;;;;;;;;;;;5128764;27;20182;-72
2021/10/09 12:20:36;;;;;;;;;;;;;;;;;;5134590;27;20444;-71
2021/10/09 12:23:05;;;;;;;;;;;;;;;;;;5134383;27;19930;-72
2021/10/09 12:25:32;;;;;;;;;;;;;;;;;;5134860;27;19923;-69
2021/10/09 12:27:59;;;;;;;;;;;;;;;;;;5134229;27;19928;-72
2021/10/09 12:30:25;;;;;;;;;;;;;;;;;;5134713;27;19931;-73
2021/10/09 12:32:51;;;;;;;;;;;;;;;;;;5134318;27;20392;-72
2021/10/09 12:35:21;;;;;;;;;;;;;;;;;;5134197;27;19923;-72
2021/10/09 12:37:47;;;;;;;;;;;;;;;;;;5134347;27;20022;-72
2021/10/09 12:40:13;;;;;;;;;;;;;;;;;;5133928;27;19923;-71
2021/10/09 12:42:39;;;;;;;;;;;;;;;;;;5134531;27;19923;-72
2021/10/09 12:45:06;;;;;;;;;;;;;;;;;;5134098;27;19923;-72
2021/10/09 12:47:32;;;;;;;;;;;;;;;;;;5134449;27;19923;-72
2021/10/09 12:49:58;;;;;;;;;;;;;;;;;;5134074;27;19930;-72
2021/10/09 12:52:25;;;;;;;;;;;;;;;;;;5133914;27;20397;-72
2021/10/09 12:54:51;;;;;;;;;;;;;;;;;;5133726;27;19928;-72
2021/10/09 12:57:17;;;;;;;;;;;;;;;;;;5133959;27;19923;-72
2021/10/09 12:59:43;;;;;;;;;;;;;;;;;;5133800;27;19923;-73
2021/10/09 13:02:10;;;;;;;;;;;;;;;;;;5133875;27;19923;-72
2021/10/09 13:04:37;;;;;;;;;;;;;;;;;;5133856;27;19924;-72
2021/10/09 13:07:04;;;;;;;;;;;;;;;;;;5133390;27;20270;-72
2021/10/09 13:09:30;;;;;;;;;;;;;;;;;;5133679;27;19924;-72
2021/10/09 13:11:58;;;;;;;;;;;;;;;;;;5133813;27;19924;-72
2021/10/09 13:14:24;;;;;;;;;;;;;;;;;;5133675;27;20022;-72
2021/10/09 13:16:51;;;;;;;;;;;;;;;;;;5129906;27;19931;-73
2021/10/09 13:19:17;;;;;;;;;;;;;;;;;;5112737;28;20298;-72
2021/10/09 13:21:43;;;;;;;;;;;;;;;;;;5113055;28;19924;-73
2021/10/09 13:24:09;;;;;;;;;;;;;;;;;;5112899;28;19930;-72
2021/10/09 13:26:36;;;;;;;;;;;;;;;;;;5112945;28;20404;-73
2021/10/09 13:29:02;;;;;;;;;;;;;;;;;;5112967;28;19931;-72
2021/10/09 13:31:28;;;;;;;;;;;;;;;;;;5112884;28;19923;-73
2021/10/09 13:33:56;;;;;;;;;;;;;;;;;;5113022;28;19924;-73
2021/10/09 13:36:22;;;;;;;;;;;;;;;;;;5112821;28;19928;-72
2021/10/09 13:38:49;;;;;;;;;;;;;;;;;;5113182;28;19931;-72
2021/10/09 13:41:15;;;;;;;;;;;;;;;;;;5112678;28;20381;-72
2021/10/09 13:43:41;;;;;;;;;;;;;;;;;;5113035;28;19931;-72
2021/10/09 13:46:07;;;;;;;;;;;;;;;;;;5117030;28;19924;-72
2021/10/09 13:48:34;;;;;;;;;;;;;;;;;;5117062;28;20289;-74
2021/10/09 13:51:00;;;;;;;;;;;;;;;;;;5116546;28;19924;-73
2021/10/09 13:53:26;;;;;;;;;;;;;;;;;;5117140;28;19924;-72
2021/10/09 13:55:53;;;;;;;;;;;;;;;;;;5116872;28;19935;-72
2021/10/09 13:58:19;;;;;;;;;;;;;;;;;;5116471;28;19950;-71
2021/10/09 14:00:45;;;;;;;;;;;;;;;;;;5117054;28;19923;-71
2021/10/09 14:03:12;;;;;;;;;;;;;;;;;;5116902;28;19947;-71
2021/10/09 14:05:38;;;;;;;;;;;;;;;;;;5116785;28;19930;-71
2021/10/09 14:08:04;;;;;;;;;;;;;;;;;;5116610;28;19935;-71
2021/10/09 14:10:30;;;;;;;;;;;;;;;;;;5116609;28;20405;-71
2021/10/09 14:12:57;;;;;;;;;;;;;;;;;;5116649;28;19931;-71
2021/10/09 14:15:23;;;;;;;;;;;;;;;;;;5116845;28;19935;-71
2021/10/09 14:17:49;;;;;;;;;;;;;;;;;;5128540;27;20292;-70
2021/10/09 14:20:16;;;;;;;;;;;;;;;;;;5137128;27;19960;-71
2021/10/09 14:22:42;;;;;;;;;;;;;;;;;;5136848;27;19931;-71
2021/10/09 14:25:08;;;;;;;;;;;;;;;;;;5137185;27;19924;-71
2021/10/09 14:27:34;;;;;;;;;;;;;;;;;;5136891;27;20392;-70
2021/10/09 14:30:01;;;;;;;;;;;;;;;;;;5136957;27;19931;-71
2021/10/09 14:32:27;;;;;;;;;;;;;;;;;;5136645;27;20410;-71
2021/10/09 14:34:53;;;;;;;;;;;;;;;;;;5136998;27;19996;-71
2021/10/09 14:37:20;;;;;;;;;;;;;;;;;;5136442;27;19923;-71
2021/10/09 14:39:46;;;;;;;;;;;;;;;;;;5137047;27;19931;-71
2021/10/09 14:42:12;;;;;;;;;;;;;;;;;;5136284;27;20301;-71
2021/10/09 14:44:39;;;;;;;;;;;;;;;;;;5136549;27;19924;-71
2021/10/09 14:49:51;;;;;;;;;;;;;;;;;;5125405;27;20370;-71
2021/10/09 14:52:29;;;;;;;;;;;;;;;;;;5136513;27;20030;-72
2021/10/09 15:17:21;;;;;;;;;;;;;;;;;;5130311;28;20354;-71
2021/10/09 15:19:47;;;;;;;;;;;;;;;;;;5130553;27;19923;-71
2021/10/09 15:22:14;;;;;;;;;;;;;;;;;;5130066;28;19959;-71
2021/10/09 15:24:40;;;;;;;;;;;;;;;;;;5130661;27;19930;-71
2021/10/09 15:27:06;;;;;;;;;;;;;;;;;;5130155;27;20369;-70
2021/10/09 15:29:33;;;;;;;;;;;;;;;;;;5130536;28;19931;-70
2021/10/09 15:31:59;;;;;;;;;;;;;;;;;;5130362;28;19927;-71
2021/10/09 15:34:26;;;;;;;;;;;;;;;;;;5130307;27;19923;-71
2021/10/09 15:36:53;;;;;;;;;;;;;;;;;;5130020;28;20389;-70
2021/10/09 15:39:19;;;;;;;;;;;;;;;;;;5129900;28;20001;-71
2021/10/09 15:41:45;;;;;;;;;;;;;;;;;;5130313;28;19929;-71
2021/10/09 15:44:11;;;;;;;;;;;;;;;;;;5129778;28;20366;-72
2021/10/09 15:46:40;;;;;;;;;;;;;;;;;;5130051;28;19923;-71
2021/10/09 15:49:06;;;;;;;;;;;;;;;;;;5129891;28;19928;-71
2021/10/09 15:51:32;;;;;;;;;;;;;;;;;;5129889;28;20374;-71
2021/10/09 15:53:59;;;;;;;;;;;;;;;;;;5129901;28;19936;-71
2021/10/09 15:56:25;;;;;;;;;;;;;;;;;;5129696;28;19946;-72
2021/10/09 15:58:54;;;;;;;;;;;;;;;;;;5130086;28;19924;-71
2021/10/09 16:01:22;;;;;;;;;;;;;;;;;;5130340;28;19924;-70
2021/10/09 16:03:48;;;;;;;;;;;;;;;;;;5148775;28;19962;-70
2021/10/09 16:06:15;;;;;;;;;;;;;;;;;;5148466;28;19930;-70
2021/10/09 16:08:41;;;;;;;;;;;;;;;;;;5125804;27;20370;-71
2021/10/09 16:11:07;;;;;;;;;;;;;;;;;;5115965;28;19924;-71
2021/10/09 16:13:34;;;;;;;;;;;;;;;;;;5116161;28;19923;-72
2021/10/09 16:16:00;;;;;;;;;;;;;;;;;;5115757;27;19924;-71
2021/10/09 16:18:27;;;;;;;;;;;;;;;;;;5115723;28;19923;-71
2021/10/09 16:20:53;;;;;;;;;;;;;;;;;;5115569;28;20303;-71
2021/10/09 16:23:19;;;;;;;;;;;;;;;;;;5115297;28;20397;-71
2021/10/09 16:25:46;;;;;;;;;;;;;;;;;;5115675;28;19924;-72
2021/10/09 16:28:12;;;;;;;;;;;;;;;;;;5115391;28;19923;-71
2021/10/09 16:30:38;;;;;;;;;;;;;;;;;;5115444;28;20382;-71
2021/10/09 16:33:05;;;;;;;;;;;;;;;;;;5115165;28;19924;-71
2021/10/09 16:35:31;;;;;;;;;;;;;;;;;;5115526;28;19931;-71
2021/10/09 16:37:57;;;;;;;;;;;;;;;;;;5115154;28;19924;-70
2021/10/09 16:40:23;;;;;;;;;;;;;;;;;;5115226;28;19924;-71
2021/10/09 16:42:50;;;;;;;;;;;;;;;;;;5115439;28;19934;-71
2021/10/09 16:45:16;;;;;;;;;;;;;;;;;;5114866;28;20348;-70
2021/10/09 16:47:42;;;;;;;;;;;;;;;;;;5115011;28;19930;-71
2021/10/09 16:50:09;;;;;;;;;;;;;;;;;;5115135;28;19930;-70
2021/10/09 16:52:35;;;;;;;;;;;;;;;;;;5114875;28;20382;-71
2021/10/09 16:55:01;;;;;;;;;;;;;;;;;;5115094;28;19931;-71
2021/10/09 16:57:27;;;;;;;;;;;;;;;;;;5114645;28;20374;-70
2021/10/09 16:59:54;;;;;;;;;;;;;;;;;;5114760;28;19930;-71
2021/10/09 17:02:20;;;;;;;;;;;;;;;;;;5114874;28;19927;-71
2021/10/09 17:04:46;;;;;;;;;;;;;;;;;;5114828;28;19923;-71
2021/10/09 17:07:13;;;;;;;;;;;;;;;;;;5114442;28;19924;-71
2021/10/09 17:09:39;;;;;;;;;;;;;;;;;;5114983;28;20024;-71
2021/10/09 17:12:05;;;;;;;;;;;;;;;;;;5114230;28;19924;-71
2021/10/09 17:14:32;;;;;;;;;;;;;;;;;;5114929;28;19924;-71
2021/10/09 17:16:58;;;;;;;;;;;;;;;;;;5114375;28;19928;-70
2021/10/09 17:19:25;;;;;;;;;;;;;;;;;;5113721;28;19969;-71
2021/10/09 17:21:51;;;;;;;;;;;;;;;;;;5114468;28;20293;-71
2021/10/09 17:24:17;;;;;;;;;;;;;;;;;;5114145;28;19924;-72
2021/10/09 17:26:44;;;;;;;;;;;;;;;;;;5114558;28;19930;-72
2021/10/09 17:29:10;;;;;;;;;;;;;;;;;;5114029;28;20424;-71
2021/10/09 17:31:36;;;;;;;;;;;;;;;;;;5114182;28;19936;-71
2021/10/09 17:34:02;;;;;;;;;;;;;;;;;;5114280;28;19924;-71
2021/10/09 17:36:29;;;;;;;;;;;;;;;;;;5114098;28;19924;-71
2021/10/09 17:38:55;;;;;;;;;;;;;;;;;;5114334;28;19931;-71
2021/10/09 17:41:21;;;;;;;;;;;;;;;;;;5113984;28;20432;-71
2021/10/09 17:43:48;;;;;;;;;;;;;;;;;;5114051;28;19924;-72
2021/10/09 17:46:14;;;;;;;;;;;;;;;;;;5114010;28;19924;-72
2021/10/09 17:48:40;;;;;;;;;;;;;;;;;;5114297;28;19928;-71
2021/10/09 17:51:06;;;;;;;;;;;;;;;;;;5113679;28;19923;-72
2021/10/09 17:53:33;;;;;;;;;;;;;;;;;;5113815;28;19924;-72
2021/10/09 17:55:59;;;;;;;;;;;;;;;;;;5113455;28;19927;-71
2021/10/09 17:58:26;;;;;;;;;;;;;;;;;;5113708;28;19924;-72
2021/10/09 18:00:52;;;;;;;;;;;;;;;;;;5113734;28;19924;-71
2021/10/09 18:03:19;;;;;;;;;;;;;;;;;;5113770;27;19946;-72
2021/10/09 18:05:45;;;;;;;;;;;;;;;;;;5113533;28;19931;-71
2021/10/09 18:08:11;;;;;;;;;;;;;;;;;;5113316;28;19931;-71
2021/10/09 18:10:38;;;;;;;;;;;;;;;;;;5113806;28;19923;-71
2021/10/09 18:13:04;;;;;;;;;;;;;;;;;;5113261;28;19924;-71
2021/10/09 18:15:31;;;;;;;;;;;;;;;;;;5113517;28;19927;-72
2021/10/09 18:17:57;;;;;;;;;;;;;;;;;;5113023;28;19924;-71
2021/10/09 18:20:24;;;;;;;;;;;;;;;;;;5113606;28;19924;-71
2021/10/09 18:22:50;;;;;;;;;;;;;;;;;;5113459;28;19924;-71
2021/10/09 18:25:16;;;;;;;;;;;;;;;;;;5112981;28;19934;-71
2021/10/09 18:27:42;;;;;;;;;;;;;;;;;;5113534;28;19924;-71
2021/10/09 18:30:10;;;;;;;;;;;;;;;;;;5113097;28;19945;-71
2021/10/09 18:32:36;;;;;;;;;;;;;;;;;;5113239;28;19927;-71
2021/10/09 18:35:02;;;;;;;;;;;;;;;;;;5112885;28;19924;-71
2021/10/09 18:37:29;;;;;;;;;;;;;;;;;;5113308;28;19923;-71
2021/10/09 18:39:55;;;;;;;;;;;;;;;;;;5113009;28;20386;-71
2021/10/09 18:42:21;;;;;;;;;;;;;;;;;;5113367;28;19928;-71
2021/10/09 18:44:48;;;;;;;;;;;;;;;;;;5112848;28;20290;-71
2021/10/09 18:47:14;;;;;;;;;;;;;;;;;;5112745;28;19923;-71
2021/10/09 18:49:41;;;;;;;;;;;;;;;;;;5113220;28;19934;-71
2021/10/09 18:52:07;;;;;;;;;;;;;;;;;;5112752;28;19924;-71
2021/10/09 18:54:33;;;;;;;;;;;;;;;;;;5113199;28;19924;-71
2021/10/09 18:57:00;;;;;;;;;;;;;;;;;;5112229;28;19931;-71
2021/10/09 18:59:26;;;;;;;;;;;;;;;;;;5113061;28;19930;-71